createdAt,value
2022-12-12T00:01:18.915Z,28.52
2022-12-12T00:06:21.615Z,35.13
2022-12-12T00:11:24.084Z,27.38
2022-12-12T00:16:26.241Z,30.83
2022-12-12T00:21:29.604Z,26.67
2022-12-12T00:26:33.796Z,30.80
2022-12-12T00:31:35.596Z,29.20
2022-12-12T00:36:37.719Z,29.80
2022-12-12T00:41:39.619Z,31.48
2022-12-12T00:46:42.481Z,30.83
2022-12-12T00:51:45.134Z,33.22
2022-12-12T00:56:46.825Z,28.33
2022-12-12T01:01:48.968Z,28.25
2022-12-12T01:06:51.114Z,31.13
2022-12-12T01:11:52.781Z,31.40
2022-12-12T01:16:54.419Z,29.42
2022-12-12T01:21:56.243Z,27.52
2022-12-12T01:26:57.954Z,31.08
2022-12-12T01:31:59.667Z,32.85
2022-12-12T01:37:01.371Z,30.42
2022-12-12T01:42:03.154Z,34.20
2022-12-12T01:47:04.891Z,30.08
2022-12-12T01:52:11.071Z,29.77
2022-12-12T01:57:18.192Z,27.98
2022-12-12T02:02:20.144Z,28.85
2022-12-12T02:07:21.913Z,31.25
2022-12-12T02:12:23.644Z,27.33
2022-12-12T02:17:43.794Z,29.63
2022-12-12T02:22:47.525Z,29.33
2022-12-12T02:28:13.879Z,30.98
2022-12-12T02:33:21.738Z,24.73
2022-12-12T02:38:31.413Z,28.98
2022-12-12T02:43:43.613Z,29.77
2022-12-12T02:48:54.154Z,30.65
2022-12-12T02:53:58.197Z,29.63
2022-12-12T02:59:00.130Z,31.73
2022-12-12T03:04:37.074Z,27.65
2022-12-12T03:10:00.724Z,29.35
2022-12-12T03:15:12.167Z,24.15
2022-12-12T03:20:33.182Z,36.58
2022-12-12T03:25:44.389Z,30.98
2022-12-12T03:36:13.467Z,25.48
2022-12-12T03:41:20.463Z,28.00
2022-12-12T03:46:36.295Z,27.42
2022-12-12T03:51:43.611Z,27.27
2022-12-12T03:56:54.575Z,25.98
2022-12-12T04:02:14.561Z,29.95
2022-12-12T04:07:24.718Z,31.42
2022-12-12T04:12:58.627Z,30.05
2022-12-12T04:18:19.277Z,29.73
2022-12-12T04:23:40.113Z,25.35
2022-12-12T04:28:48.207Z,28.92
2022-12-12T04:33:53.078Z,28.02
2022-12-12T04:38:56.894Z,29.38
2022-12-12T04:44:02.056Z,31.60
2022-12-12T04:49:10.807Z,29.15
2022-12-12T04:54:35.920Z,27.00
2022-12-12T04:59:38.345Z,28.20
2022-12-12T05:04:52.647Z,23.10
2022-12-12T05:09:54.550Z,33.47
2022-12-12T05:14:56.259Z,32.40
2022-12-12T05:19:58.707Z,27.35
2022-12-12T05:25:00.491Z,28.30
2022-12-12T05:30:02.408Z,27.48
2022-12-12T05:35:05.044Z,70.85
2022-12-12T05:40:08.958Z,42.38
2022-12-12T05:45:12.005Z,40.28
2022-12-12T05:50:14.074Z,41.25
2022-12-12T05:55:16.018Z,37.45
2022-12-12T06:00:18.128Z,35.85
2022-12-12T06:05:19.945Z,32.80
2022-12-12T06:10:21.695Z,32.78
2022-12-12T06:15:23.424Z,38.67
2022-12-12T06:20:25.168Z,37.63
2022-12-12T06:25:26.864Z,33.42
2022-12-12T06:30:29.024Z,35.95
2022-12-12T06:35:30.821Z,31.75
2022-12-12T06:40:32.579Z,32.65
2022-12-12T06:45:34.323Z,32.40
2022-12-12T06:50:40.154Z,32.38
2022-12-12T06:55:43.948Z,32.30
2022-12-12T07:00:49.962Z,50.00
2022-12-12T07:05:51.708Z,45.53
2022-12-12T07:10:53.909Z,47.00
2022-12-12T07:15:56.073Z,39.95
2022-12-12T07:20:57.878Z,48.42
2022-12-12T07:26:03.310Z,60.33
2022-12-12T07:31:10.061Z,49.38
2022-12-12T07:36:16.364Z,34.45
2022-12-12T07:41:20.331Z,45.95
2022-12-12T07:46:25.799Z,47.13
2022-12-12T07:51:27.691Z,58.63
2022-12-12T07:56:29.468Z,59.70
2022-12-12T08:01:31.283Z,40.65
2022-12-12T08:06:32.993Z,40.47
2022-12-12T08:11:35.004Z,39.92
2022-12-12T08:16:36.760Z,47.47
2022-12-12T08:21:38.553Z,36.08
2022-12-12T08:26:40.661Z,43.20
2022-12-12T08:31:42.777Z,44.78
2022-12-12T08:36:45.239Z,47.28
2022-12-12T08:41:55.298Z,45.38
2022-12-12T08:46:57.259Z,38.78
2022-12-12T08:51:59.055Z,40.42
2022-12-12T08:57:00.712Z,45.00
2022-12-12T09:02:02.703Z,35.58
2022-12-12T09:07:08.417Z,40.50
2022-12-12T09:12:10.548Z,39.90
2022-12-12T09:17:12.265Z,40.40
2022-12-12T09:22:13.934Z,38.17
2022-12-12T09:27:15.738Z,39.63
2022-12-12T09:32:22.735Z,42.53
2022-12-12T09:37:27.548Z,39.83
2022-12-12T09:42:33.754Z,45.40
2022-12-12T09:47:51.469Z,37.28
2022-12-12T09:52:56.805Z,39.75
2022-12-12T09:58:34.102Z,36.75
2022-12-12T10:04:17.386Z,29.17
2022-12-12T10:09:37.184Z,32.47
2022-12-12T10:14:46.391Z,32.28
2022-12-12T10:19:59.285Z,34.92
2022-12-12T10:25:24.828Z,26.88
2022-12-12T10:30:30.584Z,34.45
2022-12-12T10:36:00.877Z,25.38
2022-12-12T10:41:49.715Z,28.63
2022-12-12T10:47:02.734Z,31.35
2022-12-12T10:52:11.515Z,26.73
2022-12-12T10:57:20.884Z,29.88
2022-12-12T11:02:28.226Z,35.00
2022-12-12T11:07:30.217Z,26.58
2022-12-12T11:12:35.318Z,26.10
2022-12-12T11:17:37.057Z,23.08
2022-12-12T11:22:39.689Z,24.17
2022-12-12T11:27:41.856Z,26.67
2022-12-12T11:32:48.333Z,29.13
2022-12-12T11:37:54.309Z,38.28
2022-12-12T11:43:14.818Z,27.25
2022-12-12T11:49:04.210Z,23.80
2022-12-12T11:54:31.149Z,21.25
2022-12-12T11:59:57.122Z,23.98
2022-12-12T12:05:40.816Z,17.35
2022-12-12T12:11:10.238Z,19.20
2022-12-12T12:16:26.000Z,25.17
2022-12-12T12:21:27.718Z,17.70
2022-12-12T12:26:47.530Z,17.27
2022-12-12T12:32:12.118Z,15.13
2022-12-12T12:37:29.873Z,15.90
2022-12-12T12:43:25.688Z,16.95
2022-12-12T12:48:41.307Z,15.68
2022-12-12T12:53:50.097Z,22.05
2022-12-12T12:58:54.382Z,17.90
2022-12-12T13:04:03.181Z,17.48
2022-12-12T13:09:13.995Z,16.92
2022-12-12T13:14:35.803Z,17.50
2022-12-12T13:19:45.347Z,23.70
2022-12-12T13:25:00.062Z,17.58
2022-12-12T13:30:19.435Z,15.23
2022-12-12T13:35:45.894Z,18.48
2022-12-12T13:41:06.501Z,16.88
2022-12-12T13:46:24.571Z,15.50
2022-12-12T13:51:31.900Z,17.70
2022-12-12T13:56:45.262Z,15.27
2022-12-12T14:01:47.174Z,21.13
2022-12-12T14:07:03.009Z,23.63
2022-12-12T14:12:06.998Z,18.92
2022-12-12T14:17:21.774Z,17.27
2022-12-12T14:22:38.799Z,17.52
2022-12-12T14:27:49.323Z,16.08
2022-12-12T14:33:04.561Z,15.95
2022-12-12T14:38:33.921Z,17.42
2022-12-12T14:43:40.709Z,18.10
2022-12-12T14:48:45.465Z,23.45
2022-12-12T14:53:50.580Z,54.75
2022-12-12T14:59:04.504Z,18.95
2022-12-12T15:04:11.202Z,17.77
2022-12-12T15:09:31.889Z,14.88
2022-12-12T15:14:35.480Z,22.65
2022-12-12T15:20:06.772Z,20.20
2022-12-12T15:25:19.091Z,20.67
2022-12-12T15:30:37.928Z,18.88
2022-12-12T15:35:41.605Z,17.75
2022-12-12T15:40:56.943Z,22.13
2022-12-12T15:46:02.689Z,19.85
2022-12-12T15:51:06.981Z,26.73
2022-12-12T15:56:27.921Z,22.15
2022-12-12T16:01:31.100Z,22.52
2022-12-12T16:06:37.427Z,22.85
2022-12-12T16:11:58.010Z,23.33
2022-12-12T16:17:20.360Z,36.35
2022-12-12T16:22:44.965Z,40.58
2022-12-12T16:27:49.593Z,25.95
2022-12-12T16:32:51.742Z,26.17
2022-12-12T16:37:54.098Z,25.92
2022-12-12T16:43:07.786Z,26.73
2022-12-12T16:48:25.898Z,36.42
2022-12-12T16:53:28.984Z,29.25
2022-12-12T16:58:32.336Z,26.92
2022-12-12T17:03:34.526Z,23.52
2022-12-12T17:08:38.741Z,26.13
2022-12-12T17:13:49.058Z,24.55
2022-12-12T17:18:52.598Z,44.37
2022-12-12T17:23:54.932Z,38.35
2022-12-12T17:28:57.586Z,37.58
2022-12-12T17:34:01.290Z,43.90
2022-12-12T17:39:03.928Z,41.25
2022-12-12T17:44:05.993Z,36.08
2022-12-12T17:49:08.502Z,26.88
2022-12-12T17:54:11.926Z,25.17
2022-12-12T17:59:14.275Z,26.50
2022-12-12T18:04:27.457Z,47.35
2022-12-12T18:09:30.378Z,31.02
2022-12-12T18:14:35.341Z,29.08
2022-12-12T18:19:37.710Z,31.20
2022-12-12T18:24:39.813Z,26.33
2022-12-12T18:29:43.130Z,44.47
2022-12-12T18:34:45.559Z,32.22
2022-12-12T18:39:47.955Z,43.47
2022-12-12T18:44:49.852Z,62.67
2022-12-12T18:49:56.268Z,63.53
2022-12-12T18:54:58.586Z,46.00
2022-12-12T19:00:00.841Z,47.58
2022-12-12T19:05:03.416Z,30.60
2022-12-12T19:10:08.748Z,39.80
2022-12-12T19:15:18.601Z,38.88
2022-12-12T19:20:24.854Z,39.15
2022-12-12T19:25:29.322Z,44.35
2022-12-12T19:30:33.059Z,42.55
2022-12-12T19:35:38.300Z,47.53
2022-12-12T19:40:40.474Z,39.40
2022-12-12T19:45:42.596Z,40.78
2022-12-12T19:50:44.585Z,36.28
2022-12-12T19:55:47.855Z,57.58
2022-12-12T20:00:50.616Z,65.72
2022-12-12T20:06:01.534Z,53.83
2022-12-12T20:11:04.478Z,42.92
2022-12-12T20:16:11.501Z,47.38
2022-12-12T20:21:30.052Z,44.05
2022-12-12T20:31:39.687Z,47.22
2022-12-12T20:36:43.377Z,44.33
2022-12-12T20:41:45.872Z,44.10
2022-12-12T20:46:47.982Z,48.92
2022-12-12T20:51:58.231Z,36.67
2022-12-12T20:57:01.107Z,41.07
2022-12-12T21:02:03.486Z,62.78
2022-12-12T21:07:05.607Z,52.97
2022-12-12T21:12:08.012Z,64.70
2022-12-12T21:17:10.057Z,73.65
2022-12-12T21:22:12.135Z,52.25
2022-12-12T21:27:13.997Z,42.38
2022-12-12T21:32:17.084Z,37.85
2022-12-12T21:37:19.263Z,43.58
2022-12-12T21:42:21.748Z,36.65
2022-12-12T21:47:23.955Z,44.72
2022-12-12T21:52:27.127Z,37.15
2022-12-12T21:57:29.588Z,36.60
2022-12-12T22:02:32.021Z,42.63
2022-12-12T22:07:35.389Z,45.95
2022-12-12T22:12:37.845Z,56.03
2022-12-12T22:17:41.407Z,51.30
2022-12-12T22:22:43.618Z,44.35
2022-12-12T22:27:45.779Z,51.88
2022-12-12T22:32:47.791Z,44.97
2022-12-12T22:37:49.988Z,41.67
2022-12-12T22:42:51.835Z,49.30
2022-12-12T22:47:54.089Z,37.47
2022-12-12T22:52:56.118Z,48.83
2022-12-12T22:57:58.619Z,38.38
2022-12-12T23:03:01.727Z,38.20
2022-12-12T23:08:03.989Z,30.20
2022-12-12T23:13:08.021Z,34.83
2022-12-12T23:18:10.366Z,30.77
2022-12-12T23:23:13.478Z,33.92
2022-12-12T23:28:15.907Z,43.33
2022-12-12T23:33:18.318Z,41.60
2022-12-12T23:38:20.746Z,37.42
2022-12-12T23:43:23.049Z,32.75
2022-12-12T23:48:25.279Z,32.15
2022-12-12T23:53:27.721Z,37.38
2022-12-12T23:58:29.903Z,35.45
